sensor_id;sensor_type;location;lat;lon;timestamp;P1;durP1;ratioP1;P2;durP2;ratioP2
29466;SDS011;60968;37.490;-122.288;2022-10-23T00:02:13;16.17;;;3.37;;
29466;SDS011;60968;37.490;-122.288;2022-10-23T00:05:15;16.50;;;3.73;;
29466;SDS011;60968;37.490;-122.288;2022-10-23T00:08:16;16.97;;;3.00;;
29466;SDS011;60968;37.490;-122.288;2022-10-23T00:11:19;21.67;;;4.00;;
29466;SDS011;60968;37.490;-122.288;2022-10-23T00:14:23;12.63;;;2.90;;
29466;SDS011;60968;37.490;-122.288;2022-10-23T00:17:24;22.10;;;4.07;;
29466;SDS011;60968;37.490;-122.288;2022-10-23T00:20:25;18.97;;;3.57;;
29466;SDS011;60968;37.490;-122.288;2022-10-23T00:23:29;17.43;;;3.03;;
29466;SDS011;60968;37.490;-122.288;2022-10-23T00:26:30;16.23;;;3.53;;
29466;SDS011;60968;37.490;-122.288;2022-10-23T00:29:31;25.17;;;4.30;;
29466;SDS011;60968;37.490;-122.288;2022-10-23T00:32:33;13.80;;;2.93;;
29466;SDS011;60968;37.490;-122.288;2022-10-23T00:35:34;21.47;;;3.40;;
29466;SDS011;60968;37.490;-122.288;2022-10-23T00:38:38;21.93;;;3.20;;
29466;SDS011;60968;37.490;-122.288;2022-10-23T00:41:39;24.83;;;3.80;;
29466;SDS011;60968;37.490;-122.288;2022-10-23T00:47:41;19.60;;;3.53;;
29466;SDS011;60968;37.490;-122.288;2022-10-23T00:50:42;24.23;;;3.43;;
29466;SDS011;60968;37.490;-122.288;2022-10-23T00:53:43;16.40;;;2.80;;
29466;SDS011;60968;37.490;-122.288;2022-10-23T00:56:49;26.50;;;3.93;;
29466;SDS011;60968;37.490;-122.288;2022-10-23T00:59:52;25.20;;;4.13;;
29466;SDS011;60968;37.490;-122.288;2022-10-23T01:02:53;18.20;;;3.77;;
29466;SDS011;60968;37.490;-122.288;2022-10-23T01:12:27;32.47;;;4.77;;
29466;SDS011;60968;37.490;-122.288;2022-10-23T01:16:30;21.73;;;3.50;;
29466;SDS011;60968;37.490;-122.288;2022-10-23T01:29:48;23.20;;;3.83;;
29466;SDS011;60968;37.490;-122.288;2022-10-23T01:33:20;30.07;;;4.30;;
29466;SDS011;60968;37.490;-122.288;2022-10-23T01:36:34;25.67;;;4.43;;
29466;SDS011;60968;37.490;-122.288;2022-10-23T01:39:41;21.03;;;3.60;;
29466;SDS011;60968;37.490;-122.288;2022-10-23T01:42:48;20.63;;;4.10;;
29466;SDS011;60968;37.490;-122.288;2022-10-23T01:45:57;22.90;;;3.70;;
29466;SDS011;60968;37.490;-122.288;2022-10-23T01:49:03;19.20;;;3.67;;
29466;SDS011;60968;37.490;-122.288;2022-10-23T01:52:08;20.17;;;4.10;;
29466;SDS011;60968;37.490;-122.288;2022-10-23T01:55:12;24.83;;;3.77;;
29466;SDS011;60968;37.490;-122.288;2022-10-23T01:58:14;31.27;;;4.33;;
29466;SDS011;60968;37.490;-122.288;2022-10-23T02:01:15;23.17;;;3.93;;
29466;SDS011;60968;37.490;-122.288;2022-10-23T02:04:24;23.47;;;4.03;;
29466;SDS011;60968;37.490;-122.288;2022-10-23T02:07:30;20.23;;;4.23;;
29466;SDS011;60968;37.490;-122.288;2022-10-23T02:10:40;16.57;;;3.20;;
29466;SDS011;60968;37.490;-122.288;2022-10-23T02:17:20;17.37;;;3.57;;
29466;SDS011;60968;37.490;-122.288;2022-10-23T02:20:35;21.80;;;4.37;;
29466;SDS011;60968;37.490;-122.288;2022-10-23T02:23:55;18.83;;;2.70;;
29466;SDS011;60968;37.490;-122.288;2022-10-23T02:27:02;15.13;;;3.37;;
29466;SDS011;60968;37.490;-122.288;2022-10-23T02:30:11;18.70;;;3.30;;
29466;SDS011;60968;37.490;-122.288;2022-10-23T02:33:16;24.80;;;2.90;;
29466;SDS011;60968;37.490;-122.288;2022-10-23T02:36:18;20.70;;;3.60;;
29466;SDS011;60968;37.490;-122.288;2022-10-23T02:39:20;23.67;;;3.43;;
29466;SDS011;60968;37.490;-122.288;2022-10-23T02:46:13;19.10;;;2.93;;
29466;SDS011;60968;37.490;-122.288;2022-10-23T02:53:17;21.63;;;4.50;;
29466;SDS011;60968;37.490;-122.288;2022-10-23T02:56:34;18.17;;;3.73;;
29466;SDS011;60968;37.490;-122.288;2022-10-23T02:59:44;27.50;;;5.47;;
29466;SDS011;60968;37.490;-122.288;2022-10-23T03:05:56;24.17;;;4.57;;
29466;SDS011;60968;37.490;-122.288;2022-10-23T03:08:58;34.17;;;3.60;;
29466;SDS011;60968;37.490;-122.288;2022-10-23T03:12:02;29.27;;;4.53;;
29466;SDS011;60968;37.490;-122.288;2022-10-23T03:15:03;21.70;;;4.17;;
29466;SDS011;60968;37.490;-122.288;2022-10-23T03:18:05;24.07;;;4.83;;
29466;SDS011;60968;37.490;-122.288;2022-10-23T03:21:06;32.20;;;5.40;;
29466;SDS011;60968;37.490;-122.288;2022-10-23T03:24:07;19.50;;;3.87;;
29466;SDS011;60968;37.490;-122.288;2022-10-23T03:27:08;21.07;;;4.27;;
29466;SDS011;60968;37.490;-122.288;2022-10-23T03:30:09;25.33;;;4.40;;
29466;SDS011;60968;37.490;-122.288;2022-10-23T03:33:10;27.13;;;4.40;;
29466;SDS011;60968;37.490;-122.288;2022-10-23T03:36:11;36.20;;;5.33;;
29466;SDS011;60968;37.490;-122.288;2022-10-23T03:39:13;32.33;;;4.47;;
29466;SDS011;60968;37.490;-122.288;2022-10-23T03:42:13;31.73;;;5.20;;
29466;SDS011;60968;37.490;-122.288;2022-10-23T03:45:14;40.13;;;4.90;;
29466;SDS011;60968;37.490;-122.288;2022-10-23T03:48:15;27.80;;;4.43;;
29466;SDS011;60968;37.490;-122.288;2022-10-23T03:51:16;32.17;;;4.50;;
29466;SDS011;60968;37.490;-122.288;2022-10-23T03:54:18;30.17;;;4.27;;
29466;SDS011;60968;37.490;-122.288;2022-10-23T03:57:20;27.63;;;4.60;;
29466;SDS011;60968;37.490;-122.288;2022-10-23T04:00:21;20.63;;;4.20;;
29466;SDS011;60968;37.490;-122.288;2022-10-23T04:03:22;25.63;;;4.87;;
29466;SDS011;60968;37.490;-122.288;2022-10-23T04:06:23;24.17;;;4.53;;
29466;SDS011;60968;37.490;-122.288;2022-10-23T04:09:24;27.10;;;4.37;;
29466;SDS011;60968;37.490;-122.288;2022-10-23T04:12:25;28.13;;;4.23;;
29466;SDS011;60968;37.490;-122.288;2022-10-23T04:15:26;18.60;;;3.97;;
29466;SDS011;60968;37.490;-122.288;2022-10-23T04:18:26;30.30;;;4.57;;
29466;SDS011;60968;37.490;-122.288;2022-10-23T04:21:28;20.37;;;3.87;;
29466;SDS011;60968;37.490;-122.288;2022-10-23T04:24:28;24.83;;;4.60;;
29466;SDS011;60968;37.490;-122.288;2022-10-23T04:27:29;22.37;;;4.50;;
29466;SDS011;60968;37.490;-122.288;2022-10-23T04:30:30;23.13;;;4.07;;
29466;SDS011;60968;37.490;-122.288;2022-10-23T04:33:31;22.17;;;4.13;;
29466;SDS011;60968;37.490;-122.288;2022-10-23T04:36:31;25.77;;;3.50;;
29466;SDS011;60968;37.490;-122.288;2022-10-23T04:39:32;19.97;;;3.53;;
29466;SDS011;60968;37.490;-122.288;2022-10-23T04:42:33;15.87;;;3.67;;
29466;SDS011;60968;37.490;-122.288;2022-10-23T04:45:34;25.83;;;3.90;;
29466;SDS011;60968;37.490;-122.288;2022-10-23T04:48:35;21.87;;;3.33;;
29466;SDS011;60968;37.490;-122.288;2022-10-23T04:51:37;22.13;;;4.00;;
29466;SDS011;60968;37.490;-122.288;2022-10-23T04:54:38;21.33;;;3.30;;
29466;SDS011;60968;37.490;-122.288;2022-10-23T04:57:39;23.33;;;3.70;;
29466;SDS011;60968;37.490;-122.288;2022-10-23T05:00:40;23.30;;;3.83;;
29466;SDS011;60968;37.490;-122.288;2022-10-23T05:03:41;25.37;;;3.23;;
29466;SDS011;60968;37.490;-122.288;2022-10-23T05:06:41;17.67;;;4.20;;
29466;SDS011;60968;37.490;-122.288;2022-10-23T05:09:42;24.77;;;4.50;;
29466;SDS011;60968;37.490;-122.288;2022-10-23T05:12:43;27.70;;;3.43;;
29466;SDS011;60968;37.490;-122.288;2022-10-23T05:15:45;23.70;;;3.37;;
29466;SDS011;60968;37.490;-122.288;2022-10-23T05:18:47;28.93;;;4.13;;
29466;SDS011;60968;37.490;-122.288;2022-10-23T05:21:48;27.27;;;4.07;;
29466;SDS011;60968;37.490;-122.288;2022-10-23T05:24:52;36.50;;;4.83;;
29466;SDS011;60968;37.490;-122.288;2022-10-23T05:27:53;26.87;;;4.00;;
29466;SDS011;60968;37.490;-122.288;2022-10-23T05:30:56;25.70;;;4.07;;
29466;SDS011;60968;37.490;-122.288;2022-10-23T05:33:59;33.43;;;4.63;;
29466;SDS011;60968;37.490;-122.288;2022-10-23T05:37:00;28.57;;;4.27;;
29466;SDS011;60968;37.490;-122.288;2022-10-23T05:40:02;27.07;;;3.83;;
29466;SDS011;60968;37.490;-122.288;2022-10-23T05:43:03;26.67;;;4.93;;
29466;SDS011;60968;37.490;-122.288;2022-10-23T05:46:04;20.43;;;3.80;;
29466;SDS011;60968;37.490;-122.288;2022-10-23T05:49:06;22.80;;;3.87;;
29466;SDS011;60968;37.490;-122.288;2022-10-23T05:52:09;23.53;;;3.63;;
29466;SDS011;60968;37.490;-122.288;2022-10-23T05:55:10;25.63;;;4.50;;
29466;SDS011;60968;37.490;-122.288;2022-10-23T05:58:11;23.83;;;3.70;;
29466;SDS011;60968;37.490;-122.288;2022-10-23T06:01:12;24.33;;;4.40;;
29466;SDS011;60968;37.490;-122.288;2022-10-23T06:04:14;28.03;;;4.30;;
29466;SDS011;60968;37.490;-122.288;2022-10-23T06:07:14;23.93;;;4.07;;
29466;SDS011;60968;37.490;-122.288;2022-10-23T06:10:16;25.50;;;4.20;;
29466;SDS011;60968;37.490;-122.288;2022-10-23T06:13:16;25.47;;;4.43;;
29466;SDS011;60968;37.490;-122.288;2022-10-23T06:16:18;30.67;;;4.07;;
29466;SDS011;60968;37.490;-122.288;2022-10-23T06:19:21;26.90;;;4.20;;
29466;SDS011;60968;37.490;-122.288;2022-10-23T06:22:22;24.60;;;3.90;;
29466;SDS011;60968;37.490;-122.288;2022-10-23T06:25:23;26.53;;;4.43;;
29466;SDS011;60968;37.490;-122.288;2022-10-23T06:28:23;34.83;;;4.87;;
29466;SDS011;60968;37.490;-122.288;2022-10-23T06:31:24;23.67;;;4.00;;
29466;SDS011;60968;37.490;-122.288;2022-10-23T06:34:26;21.57;;;4.10;;
29466;SDS011;60968;37.490;-122.288;2022-10-23T06:37:27;20.17;;;3.47;;
29466;SDS011;60968;37.490;-122.288;2022-10-23T06:40:28;19.10;;;3.30;;
29466;SDS011;60968;37.490;-122.288;2022-10-23T06:43:30;22.60;;;4.63;;
29466;SDS011;60968;37.490;-122.288;2022-10-23T06:46:33;21.67;;;3.93;;
29466;SDS011;60968;37.490;-122.288;2022-10-23T06:49:34;22.57;;;3.53;;
29466;SDS011;60968;37.490;-122.288;2022-10-23T06:52:35;30.67;;;4.87;;
29466;SDS011;60968;37.490;-122.288;2022-10-23T06:55:37;27.83;;;4.47;;
29466;SDS011;60968;37.490;-122.288;2022-10-23T06:58:39;22.70;;;4.20;;
29466;SDS011;60968;37.490;-122.288;2022-10-23T07:01:41;20.00;;;3.13;;
29466;SDS011;60968;37.490;-122.288;2022-10-23T07:04:41;23.10;;;4.10;;
29466;SDS011;60968;37.490;-122.288;2022-10-23T07:07:42;24.27;;;3.60;;
29466;SDS011;60968;37.490;-122.288;2022-10-23T07:10:43;23.47;;;3.63;;
29466;SDS011;60968;37.490;-122.288;2022-10-23T07:13:44;22.20;;;3.80;;
29466;SDS011;60968;37.490;-122.288;2022-10-23T07:16:45;25.57;;;4.20;;
29466;SDS011;60968;37.490;-122.288;2022-10-23T07:19:46;27.37;;;4.77;;
29466;SDS011;60968;37.490;-122.288;2022-10-23T07:22:53;17.27;;;3.67;;
29466;SDS011;60968;37.490;-122.288;2022-10-23T07:25:54;29.50;;;4.97;;
29466;SDS011;60968;37.490;-122.288;2022-10-23T07:28:55;24.53;;;3.73;;
29466;SDS011;60968;37.490;-122.288;2022-10-23T07:31:56;27.50;;;4.47;;
29466;SDS011;60968;37.490;-122.288;2022-10-23T07:34:58;22.73;;;4.67;;
29466;SDS011;60968;37.490;-122.288;2022-10-23T07:37:59;22.33;;;4.27;;
29466;SDS011;60968;37.490;-122.288;2022-10-23T07:41:00;29.03;;;3.90;;
29466;SDS011;60968;37.490;-122.288;2022-10-23T07:44:01;21.27;;;4.47;;
29466;SDS011;60968;37.490;-122.288;2022-10-23T07:47:02;24.13;;;3.90;;
29466;SDS011;60968;37.490;-122.288;2022-10-23T07:50:03;22.90;;;3.30;;
29466;SDS011;60968;37.490;-122.288;2022-10-23T07:53:04;32.10;;;4.40;;
29466;SDS011;60968;37.490;-122.288;2022-10-23T07:56:12;20.77;;;3.73;;
29466;SDS011;60968;37.490;-122.288;2022-10-23T07:59:14;26.93;;;5.43;;
29466;SDS011;60968;37.490;-122.288;2022-10-23T08:02:15;22.87;;;3.93;;
29466;SDS011;60968;37.490;-122.288;2022-10-23T08:05:18;28.07;;;3.87;;
29466;SDS011;60968;37.490;-122.288;2022-10-23T08:08:19;15.27;;;3.70;;
29466;SDS011;60968;37.490;-122.288;2022-10-23T08:11:22;19.90;;;3.33;;
29466;SDS011;60968;37.490;-122.288;2022-10-23T08:14:24;24.63;;;3.53;;
29466;SDS011;60968;37.490;-122.288;2022-10-23T08:17:25;28.57;;;4.07;;
29466;SDS011;60968;37.490;-122.288;2022-10-23T08:20:25;23.73;;;3.80;;
29466;SDS011;60968;37.490;-122.288;2022-10-23T08:23:27;23.70;;;4.07;;
29466;SDS011;60968;37.490;-122.288;2022-10-23T08:26:28;22.70;;;4.17;;
29466;SDS011;60968;37.490;-122.288;2022-10-23T08:29:30;22.60;;;3.90;;
29466;SDS011;60968;37.490;-122.288;2022-10-23T08:32:31;27.67;;;4.10;;
29466;SDS011;60968;37.490;-122.288;2022-10-23T08:35:36;20.97;;;3.47;;
29466;SDS011;60968;37.490;-122.288;2022-10-23T08:38:37;22.33;;;3.63;;
29466;SDS011;60968;37.490;-122.288;2022-10-23T08:41:42;27.33;;;3.97;;
29466;SDS011;60968;37.490;-122.288;2022-10-23T08:44:54;24.63;;;4.07;;
29466;SDS011;60968;37.490;-122.288;2022-10-23T08:48:03;36.00;;;5.13;;
29466;SDS011;60968;37.490;-122.288;2022-10-23T08:51:43;23.40;;;3.37;;
29466;SDS011;60968;37.490;-122.288;2022-10-23T08:54:55;23.17;;;3.63;;
29466;SDS011;60968;37.490;-122.288;2022-10-23T09:01:27;24.70;;;3.47;;
29466;SDS011;60968;37.490;-122.288;2022-10-23T09:04:30;17.93;;;3.33;;
29466;SDS011;60968;37.490;-122.288;2022-10-23T09:07:36;21.53;;;3.87;;
29466;SDS011;60968;37.490;-122.288;2022-10-23T09:11:02;26.67;;;3.57;;
29466;SDS011;60968;37.490;-122.288;2022-10-23T09:14:13;22.70;;;3.37;;
29466;SDS011;60968;37.490;-122.288;2022-10-23T09:17:26;21.40;;;3.60;;
29466;SDS011;60968;37.490;-122.288;2022-10-23T09:20:31;15.47;;;3.47;;
29466;SDS011;60968;37.490;-122.288;2022-10-23T09:23:34;23.07;;;3.27;;
29466;SDS011;60968;37.490;-122.288;2022-10-23T09:26:35;14.70;;;3.23;;
29466;SDS011;60968;37.490;-122.288;2022-10-23T09:29:35;14.67;;;3.10;;
29466;SDS011;60968;37.490;-122.288;2022-10-23T09:32:36;15.83;;;3.37;;
29466;SDS011;60968;37.490;-122.288;2022-10-23T09:35:38;22.90;;;3.30;;
29466;SDS011;60968;37.490;-122.288;2022-10-23T09:38:51;20.83;;;3.27;;
29466;SDS011;60968;37.490;-122.288;2022-10-23T09:41:53;20.50;;;3.00;;
29466;SDS011;60968;37.490;-122.288;2022-10-23T09:44:55;21.10;;;3.60;;
29466;SDS011;60968;37.490;-122.288;2022-10-23T09:51:15;19.07;;;3.07;;
29466;SDS011;60968;37.490;-122.288;2022-10-23T09:54:18;18.10;;;2.57;;
29466;SDS011;60968;37.490;-122.288;2022-10-23T09:57:43;26.43;;;3.40;;
29466;SDS011;60968;37.490;-122.288;2022-10-23T10:00:46;14.83;;;2.57;;
29466;SDS011;60968;37.490;-122.288;2022-10-23T10:03:47;26.10;;;4.00;;
29466;SDS011;60968;37.490;-122.288;2022-10-23T10:06:55;18.97;;;3.27;;
29466;SDS011;60968;37.490;-122.288;2022-10-23T10:09:56;25.00;;;3.13;;
29466;SDS011;60968;37.490;-122.288;2022-10-23T10:12:57;17.93;;;2.70;;
29466;SDS011;60968;37.490;-122.288;2022-10-23T10:22:39;18.50;;;3.13;;
29466;SDS011;60968;37.490;-122.288;2022-10-23T10:35:36;26.67;;;4.37;;
29466;SDS011;60968;37.490;-122.288;2022-10-23T10:52:01;20.73;;;2.80;;
29466;SDS011;60968;37.490;-122.288;2022-10-23T10:55:17;20.63;;;2.73;;
29466;SDS011;60968;37.490;-122.288;2022-10-23T11:01:44;23.10;;;3.60;;
29466;SDS011;60968;37.490;-122.288;2022-10-23T11:05:29;20.23;;;2.80;;
29466;SDS011;60968;37.490;-122.288;2022-10-23T11:08:37;17.40;;;2.53;;
29466;SDS011;60968;37.490;-122.288;2022-10-23T11:11:39;18.00;;;2.47;;
29466;SDS011;60968;37.490;-122.288;2022-10-23T11:14:40;20.67;;;2.70;;
29466;SDS011;60968;37.490;-122.288;2022-10-23T11:17:43;26.57;;;3.47;;
29466;SDS011;60968;37.490;-122.288;2022-10-23T11:20:53;29.87;;;4.03;;
29466;SDS011;60968;37.490;-122.288;2022-10-23T11:30:28;18.60;;;3.37;;
29466;SDS011;60968;37.490;-122.288;2022-10-23T11:43:07;24.33;;;3.27;;
29466;SDS011;60968;37.490;-122.288;2022-10-23T11:46:13;26.30;;;3.47;;
29466;SDS011;60968;37.490;-122.288;2022-10-23T11:49:27;24.13;;;4.47;;
29466;SDS011;60968;37.490;-122.288;2022-10-23T11:52:28;26.67;;;3.87;;
29466;SDS011;60968;37.490;-122.288;2022-10-23T11:55:30;18.57;;;3.23;;
29466;SDS011;60968;37.490;-122.288;2022-10-23T11:58:42;18.80;;;2.93;;
29466;SDS011;60968;37.490;-122.288;2022-10-23T12:01:44;16.87;;;2.47;;
29466;SDS011;60968;37.490;-122.288;2022-10-23T12:04:47;22.33;;;2.77;;
29466;SDS011;60968;37.490;-122.288;2022-10-23T12:07:58;15.13;;;2.50;;
29466;SDS011;60968;37.490;-122.288;2022-10-23T12:11:01;20.50;;;3.43;;
29466;SDS011;60968;37.490;-122.288;2022-10-23T12:14:02;16.33;;;3.17;;
29466;SDS011;60968;37.490;-122.288;2022-10-23T12:17:17;18.07;;;3.10;;
29466;SDS011;60968;37.490;-122.288;2022-10-23T12:23:42;20.23;;;3.60;;
29466;SDS011;60968;37.490;-122.288;2022-10-23T12:30:43;21.77;;;2.57;;
29466;SDS011;60968;37.490;-122.288;2022-10-23T12:33:40;16.93;;;2.97;;
29466;SDS011;60968;37.490;-122.288;2022-10-23T12:36:53;26.17;;;3.03;;
29466;SDS011;60968;37.490;-122.288;2022-10-23T12:40:14;28.60;;;3.40;;
29466;SDS011;60968;37.490;-122.288;2022-10-23T12:43:28;21.33;;;3.33;;
29466;SDS011;60968;37.490;-122.288;2022-10-23T12:46:50;27.47;;;3.40;;
29466;SDS011;60968;37.490;-122.288;2022-10-23T12:49:55;18.70;;;2.47;;
29466;SDS011;60968;37.490;-122.288;2022-10-23T12:53:00;15.63;;;2.50;;
29466;SDS011;60968;37.490;-122.288;2022-10-23T12:56:02;17.53;;;3.10;;
29466;SDS011;60968;37.490;-122.288;2022-10-23T12:59:09;26.37;;;3.40;;
29466;SDS011;60968;37.490;-122.288;2022-10-23T13:02:25;18.90;;;3.17;;
29466;SDS011;60968;37.490;-122.288;2022-10-23T13:05:27;20.80;;;2.93;;
29466;SDS011;60968;37.490;-122.288;2022-10-23T13:08:35;17.50;;;3.23;;
29466;SDS011;60968;37.490;-122.288;2022-10-23T13:11:40;21.37;;;3.00;;
29466;SDS011;60968;37.490;-122.288;2022-10-23T13:14:53;15.63;;;2.37;;
29466;SDS011;60968;37.490;-122.288;2022-10-23T13:18:07;15.57;;;2.43;;
29466;SDS011;60968;37.490;-122.288;2022-10-23T13:21:30;15.37;;;2.00;;
29466;SDS011;60968;37.490;-122.288;2022-10-23T13:24:30;23.20;;;2.60;;
29466;SDS011;60968;37.490;-122.288;2022-10-23T13:27:32;13.83;;;2.03;;
29466;SDS011;60968;37.490;-122.288;2022-10-23T13:30:35;11.50;;;2.07;;
29466;SDS011;60968;37.490;-122.288;2022-10-23T13:33:41;13.23;;;1.67;;
29466;SDS011;60968;37.490;-122.288;2022-10-23T13:37:29;14.07;;;2.23;;
29466;SDS011;60968;37.490;-122.288;2022-10-23T13:40:25;10.43;;;2.07;;
29466;SDS011;60968;37.490;-122.288;2022-10-23T13:43:27;13.27;;;1.73;;
29466;SDS011;60968;37.490;-122.288;2022-10-23T13:46:29;19.20;;;2.00;;
29466;SDS011;60968;37.490;-122.288;2022-10-23T13:49:30;9.87;;;1.60;;
29466;SDS011;60968;37.490;-122.288;2022-10-23T13:52:33;27.17;;;2.87;;
29466;SDS011;60968;37.490;-122.288;2022-10-23T13:55:34;14.03;;;1.70;;
29466;SDS011;60968;37.490;-122.288;2022-10-23T13:58:36;6.23;;;1.33;;
29466;SDS011;60968;37.490;-122.288;2022-10-23T14:01:37;12.93;;;1.30;;
29466;SDS011;60968;37.490;-122.288;2022-10-23T14:04:39;9.93;;;1.80;;
29466;SDS011;60968;37.490;-122.288;2022-10-23T14:07:40;10.67;;;1.33;;
29466;SDS011;60968;37.490;-122.288;2022-10-23T14:10:40;8.30;;;1.60;;
29466;SDS011;60968;37.490;-122.288;2022-10-23T14:13:41;16.80;;;1.73;;
29466;SDS011;60968;37.490;-122.288;2022-10-23T14:16:42;11.40;;;1.90;;
29466;SDS011;60968;37.490;-122.288;2022-10-23T14:19:43;17.17;;;2.07;;
29466;SDS011;60968;37.490;-122.288;2022-10-23T14:22:44;8.07;;;1.70;;
29466;SDS011;60968;37.490;-122.288;2022-10-23T14:25:44;6.50;;;1.77;;
29466;SDS011;60968;37.490;-122.288;2022-10-23T14:28:45;9.27;;;1.80;;
29466;SDS011;60968;37.490;-122.288;2022-10-23T14:31:46;6.73;;;1.00;;
29466;SDS011;60968;37.490;-122.288;2022-10-23T14:34:51;4.23;;;1.40;;
29466;SDS011;60968;37.490;-122.288;2022-10-23T14:37:53;8.17;;;1.20;;
29466;SDS011;60968;37.490;-122.288;2022-10-23T14:40:54;7.50;;;1.20;;
29466;SDS011;60968;37.490;-122.288;2022-10-23T14:43:55;5.03;;;1.00;;
29466;SDS011;60968;37.490;-122.288;2022-10-23T14:46:56;7.60;;;1.50;;
29466;SDS011;60968;37.490;-122.288;2022-10-23T14:49:57;6.67;;;1.20;;
29466;SDS011;60968;37.490;-122.288;2022-10-23T14:52:58;6.60;;;1.27;;
29466;SDS011;60968;37.490;-122.288;2022-10-23T14:56:00;9.10;;;1.20;;
29466;SDS011;60968;37.490;-122.288;2022-10-23T14:59:03;9.03;;;0.90;;
29466;SDS011;60968;37.490;-122.288;2022-10-23T15:02:05;8.13;;;1.40;;
29466;SDS011;60968;37.490;-122.288;2022-10-23T15:05:06;7.27;;;1.47;;
29466;SDS011;60968;37.490;-122.288;2022-10-23T15:08:07;12.47;;;2.13;;
29466;SDS011;60968;37.490;-122.288;2022-10-23T15:11:07;4.20;;;1.10;;
29466;SDS011;60968;37.490;-122.288;2022-10-23T15:14:08;11.27;;;1.33;;
29466;SDS011;60968;37.490;-122.288;2022-10-23T15:17:09;4.07;;;1.10;;
29466;SDS011;60968;37.490;-122.288;2022-10-23T15:20:10;16.50;;;1.10;;
29466;SDS011;60968;37.490;-122.288;2022-10-23T15:23:11;7.90;;;1.20;;
29466;SDS011;60968;37.490;-122.288;2022-10-23T15:26:13;7.93;;;1.43;;
29466;SDS011;60968;37.490;-122.288;2022-10-23T15:29:15;3.10;;;0.83;;
29466;SDS011;60968;37.490;-122.288;2022-10-23T15:32:17;4.57;;;1.10;;
29466;SDS011;60968;37.490;-122.288;2022-10-23T15:35:19;5.97;;;1.20;;
29466;SDS011;60968;37.490;-122.288;2022-10-23T15:38:20;7.70;;;1.07;;
29466;SDS011;60968;37.490;-122.288;2022-10-23T15:41:28;4.10;;;1.03;;
29466;SDS011;60968;37.490;-122.288;2022-10-23T15:44:31;6.97;;;0.80;;
29466;SDS011;60968;37.490;-122.288;2022-10-23T15:47:33;9.27;;;1.17;;
29466;SDS011;60968;37.490;-122.288;2022-10-23T15:50:34;9.00;;;1.07;;
29466;SDS011;60968;37.490;-122.288;2022-10-23T15:53:36;4.40;;;0.70;;
29466;SDS011;60968;37.490;-122.288;2022-10-23T15:56:37;5.17;;;1.00;;
29466;SDS011;60968;37.490;-122.288;2022-10-23T15:59:38;5.23;;;0.93;;
29466;SDS011;60968;37.490;-122.288;2022-10-23T16:02:39;3.47;;;1.00;;
29466;SDS011;60968;37.490;-122.288;2022-10-23T16:05:40;5.23;;;1.00;;
29466;SDS011;60968;37.490;-122.288;2022-10-23T16:08:41;5.83;;;0.80;;
29466;SDS011;60968;37.490;-122.288;2022-10-23T16:11:42;4.80;;;0.70;;
29466;SDS011;60968;37.490;-122.288;2022-10-23T16:14:43;3.80;;;0.70;;
29466;SDS011;60968;37.490;-122.288;2022-10-23T16:17:44;3.30;;;0.70;;
29466;SDS011;60968;37.490;-122.288;2022-10-23T16:20:45;5.60;;;1.10;;
29466;SDS011;60968;37.490;-122.288;2022-10-23T16:23:46;4.10;;;0.60;;
29466;SDS011;60968;37.490;-122.288;2022-10-23T16:26:47;4.73;;;1.03;;
29466;SDS011;60968;37.490;-122.288;2022-10-23T16:29:48;2.17;;;0.70;;
29466;SDS011;60968;37.490;-122.288;2022-10-23T16:32:49;3.90;;;0.77;;
29466;SDS011;60968;37.490;-122.288;2022-10-23T16:35:49;2.63;;;0.70;;
29466;SDS011;60968;37.490;-122.288;2022-10-23T16:38:50;2.57;;;0.80;;
29466;SDS011;60968;37.490;-122.288;2022-10-23T16:41:51;3.75;;;1.02;;
29466;SDS011;60968;37.490;-122.288;2022-10-23T16:44:52;3.95;;;1.20;;
29466;SDS011;60968;37.490;-122.288;2022-10-23T16:47:53;2.35;;;1.35;;
29466;SDS011;60968;37.490;-122.288;2022-10-23T16:50:55;6.72;;;1.73;;
29466;SDS011;60968;37.490;-122.288;2022-10-23T16:53:56;3.05;;;1.48;;
29466;SDS011;60968;37.490;-122.288;2022-10-23T16:56:58;3.00;;;1.40;;
29466;SDS011;60968;37.490;-122.288;2022-10-23T16:59:58;4.05;;;1.90;;
29466;SDS011;60968;37.490;-122.288;2022-10-23T17:03:00;4.03;;;1.80;;
29466;SDS011;60968;37.490;-122.288;2022-10-23T17:06:03;4.93;;;2.22;;
29466;SDS011;60968;37.490;-122.288;2022-10-23T17:09:05;4.45;;;1.95;;
29466;SDS011;60968;37.490;-122.288;2022-10-23T17:12:06;4.47;;;2.30;;
29466;SDS011;60968;37.490;-122.288;2022-10-23T17:15:07;3.75;;;1.83;;
29466;SDS011;60968;37.490;-122.288;2022-10-23T17:18:08;3.92;;;1.90;;
29466;SDS011;60968;37.490;-122.288;2022-10-23T17:21:10;3.72;;;1.60;;
29466;SDS011;60968;37.490;-122.288;2022-10-23T17:24:12;3.95;;;1.60;;
29466;SDS011;60968;37.490;-122.288;2022-10-23T17:27:14;8.25;;;1.30;;
29466;SDS011;60968;37.490;-122.288;2022-10-23T17:30:15;10.10;;;1.50;;
29466;SDS011;60968;37.490;-122.288;2022-10-23T17:33:16;3.67;;;0.90;;
29466;SDS011;60968;37.490;-122.288;2022-10-23T17:36:18;3.37;;;1.00;;
29466;SDS011;60968;37.490;-122.288;2022-10-23T17:39:22;1.67;;;0.73;;
29466;SDS011;60968;37.490;-122.288;2022-10-23T17:42:25;4.37;;;0.87;;
29466;SDS011;60968;37.490;-122.288;2022-10-23T17:45:25;2.00;;;0.53;;
29466;SDS011;60968;37.490;-122.288;2022-10-23T17:48:26;2.57;;;0.80;;
29466;SDS011;60968;37.490;-122.288;2022-10-23T17:51:28;3.57;;;0.70;;
29466;SDS011;60968;37.490;-122.288;2022-10-23T17:54:31;3.57;;;0.50;;
29466;SDS011;60968;37.490;-122.288;2022-10-23T17:57:32;2.80;;;0.60;;
29466;SDS011;60968;37.490;-122.288;2022-10-23T18:00:36;1.60;;;0.60;;
29466;SDS011;60968;37.490;-122.288;2022-10-23T18:03:37;2.27;;;0.80;;
29466;SDS011;60968;37.490;-122.288;2022-10-23T18:06:40;4.40;;;0.43;;
29466;SDS011;60968;37.490;-122.288;2022-10-23T18:09:43;1.47;;;0.50;;
29466;SDS011;60968;37.490;-122.288;2022-10-23T18:12:44;3.10;;;0.93;;
29466;SDS011;60968;37.490;-122.288;2022-10-23T18:15:44;1.30;;;0.50;;
29466;SDS011;60968;37.490;-122.288;2022-10-23T18:18:46;4.43;;;0.50;;
29466;SDS011;60968;37.490;-122.288;2022-10-23T18:21:47;1.60;;;0.50;;
29466;SDS011;60968;37.490;-122.288;2022-10-23T18:24:48;1.30;;;0.40;;
29466;SDS011;60968;37.490;-122.288;2022-10-23T18:27:49;2.97;;;0.50;;
29466;SDS011;60968;37.490;-122.288;2022-10-23T18:30:50;3.73;;;0.43;;
29466;SDS011;60968;37.490;-122.288;2022-10-23T18:33:56;1.90;;;0.50;;
29466;SDS011;60968;37.490;-122.288;2022-10-23T18:36:59;0.60;;;0.40;;
29466;SDS011;60968;37.490;-122.288;2022-10-23T18:40:01;1.60;;;0.40;;
29466;SDS011;60968;37.490;-122.288;2022-10-23T18:43:02;0.73;;;0.30;;
29466;SDS011;60968;37.490;-122.288;2022-10-23T18:46:04;1.37;;;0.40;;
29466;SDS011;60968;37.490;-122.288;2022-10-23T18:49:05;0.60;;;0.30;;
29466;SDS011;60968;37.490;-122.288;2022-10-23T18:52:06;7.13;;;0.60;;
29466;SDS011;60968;37.490;-122.288;2022-10-23T18:55:08;1.43;;;0.40;;
29466;SDS011;60968;37.490;-122.288;2022-10-23T18:58:11;1.17;;;0.40;;
29466;SDS011;60968;37.490;-122.288;2022-10-23T19:01:12;2.67;;;0.40;;
29466;SDS011;60968;37.490;-122.288;2022-10-23T19:04:13;2.27;;;0.60;;
29466;SDS011;60968;37.490;-122.288;2022-10-23T19:07:14;0.47;;;0.20;;